sensor_id;sensor_type;location;lat;lon;timestamp;pressure;altitude;pressure_sealevel;temperature;humidity
74230;BME280;62589;12.568;99.958;2022-11-15T00:00:52;100880.84;;;32.18;68.34
74230;BME280;62589;12.568;99.958;2022-11-15T00:03:22;100881.28;;;32.20;68.44
74230;BME280;62589;12.568;99.958;2022-11-15T00:05:49;100880.56;;;32.26;67.99
74230;BME280;62589;12.568;99.958;2022-11-15T00:08:16;100883.75;;;32.28;68.02
74230;BME280;62589;12.568;99.958;2022-11-15T00:10:53;100883.00;;;32.31;68.11
74230;BME280;62589;12.568;99.958;2022-11-15T00:13:20;100891.41;;;32.38;67.81
74230;BME280;62589;12.568;99.958;2022-11-15T00:15:47;100893.81;;;32.43;68.13
74230;BME280;62589;12.568;99.958;2022-11-15T00:18:14;100891.13;;;32.51;68.09
74230;BME280;62589;12.568;99.958;2022-11-15T00:20:41;100888.78;;;32.56;67.95
74230;BME280;62589;12.568;99.958;2022-11-15T00:23:09;100896.41;;;32.63;68.09
74230;BME280;62589;12.568;99.958;2022-11-15T00:25:35;100903.19;;;32.69;67.59
74230;BME280;62589;12.568;99.958;2022-11-15T00:28:02;100894.16;;;32.75;67.66
74230;BME280;62589;12.568;99.958;2022-11-15T00:30:30;100899.78;;;32.83;66.98
74230;BME280;62589;12.568;99.958;2022-11-15T00:32:56;100900.19;;;32.88;66.99
74230;BME280;62589;12.568;99.958;2022-11-15T00:35:27;100904.19;;;32.91;66.70
74230;BME280;62589;12.568;99.958;2022-11-15T00:37:54;100903.81;;;32.92;66.01
74230;BME280;62589;12.568;99.958;2022-11-15T00:40:21;100906.59;;;32.92;65.83
74230;BME280;62589;12.568;99.958;2022-11-15T00:42:47;100912.19;;;32.96;65.89
74230;BME280;62589;12.568;99.958;2022-11-15T00:45:14;100924.50;;;32.95;65.70
74230;BME280;62589;12.568;99.958;2022-11-15T00:47:43;100927.25;;;32.91;65.64
74230;BME280;62589;12.568;99.958;2022-11-15T00:50:10;100932.81;;;32.91;65.90
74230;BME280;62589;12.568;99.958;2022-11-15T00:52:36;100928.84;;;32.92;65.40
74230;BME280;62589;12.568;99.958;2022-11-15T00:55:03;100943.94;;;32.91;65.63
74230;BME280;62589;12.568;99.958;2022-11-15T00:57:30;100940.75;;;32.89;65.51
74230;BME280;62589;12.568;99.958;2022-11-15T00:59:57;100944.69;;;32.88;65.35
74230;BME280;62589;12.568;99.958;2022-11-15T01:02:24;100947.06;;;32.86;65.43
74230;BME280;62589;12.568;99.958;2022-11-15T01:04:50;100954.22;;;32.87;65.18
74230;BME280;62589;12.568;99.958;2022-11-15T01:07:17;100962.19;;;32.89;65.46
74230;BME280;62589;12.568;99.958;2022-11-15T01:09:44;100961.44;;;32.92;65.71
74230;BME280;62589;12.568;99.958;2022-11-15T01:12:10;100958.69;;;32.95;65.83
74230;BME280;62589;12.568;99.958;2022-11-15T01:14:37;100963.47;;;32.98;66.04
74230;BME280;62589;12.568;99.958;2022-11-15T01:17:04;100971.06;;;33.01;66.05
74230;BME280;62589;12.568;99.958;2022-11-15T01:19:30;100970.66;;;33.03;65.89
74230;BME280;62589;12.568;99.958;2022-11-15T01:21:57;100967.91;;;33.06;66.10
74230;BME280;62589;12.568;99.958;2022-11-15T01:24:23;100967.13;;;33.09;65.68
74230;BME280;62589;12.568;99.958;2022-11-15T01:26:50;100969.56;;;33.15;65.92
74230;BME280;62589;12.568;99.958;2022-11-15T01:29:17;100973.59;;;33.21;66.01
74230;BME280;62589;12.568;99.958;2022-11-15T01:31:43;100974.00;;;33.23;65.47
74230;BME280;62589;12.568;99.958;2022-11-15T01:34:10;100977.66;;;33.30;65.72
74230;BME280;62589;12.568;99.958;2022-11-15T01:36:37;100982.50;;;33.40;65.24
74230;BME280;62589;12.568;99.958;2022-11-15T01:39:03;100988.53;;;33.50;65.69
74230;BME280;62589;12.568;99.958;2022-11-15T01:41:32;100988.56;;;33.57;64.97
74230;BME280;62589;12.568;99.958;2022-11-15T01:46:49;100987.84;;;33.70;63.70
74230;BME280;62589;12.568;99.958;2022-11-15T01:49:18;100990.66;;;33.74;63.76
74230;BME280;62589;12.568;99.958;2022-11-15T01:51:46;100984.75;;;33.79;63.29
74230;BME280;62589;12.568;99.958;2022-11-15T01:54:16;100989.16;;;33.80;63.13
74230;BME280;62589;12.568;99.958;2022-11-15T01:56:50;101000.69;;;33.82;63.04
74230;BME280;62589;12.568;99.958;2022-11-15T01:59:19;101004.28;;;33.83;62.70
74230;BME280;62589;12.568;99.958;2022-11-15T02:01:47;101001.09;;;33.81;62.92
74230;BME280;62589;12.568;99.958;2022-11-15T02:04:17;101002.66;;;33.78;62.99
74230;BME280;62589;12.568;99.958;2022-11-15T02:06:46;101011.38;;;33.76;63.16
74230;BME280;62589;12.568;99.958;2022-11-15T02:09:14;101005.44;;;33.78;62.75
74230;BME280;62589;12.568;99.958;2022-11-15T02:11:41;101016.94;;;33.76;62.87
74230;BME280;62589;12.568;99.958;2022-11-15T02:14:10;101010.97;;;33.74;63.13
74230;BME280;62589;12.568;99.958;2022-11-15T02:16:59;101020.97;;;33.79;63.77
74230;BME280;62589;12.568;99.958;2022-11-15T02:31:18;101019.59;;;34.21;64.58
74230;BME280;62589;12.568;99.958;2022-11-15T02:37:11;101036.84;;;34.47;63.62
74230;BME280;62589;12.568;99.958;2022-11-15T02:42:35;101040.03;;;34.53;63.28
74230;BME280;62589;12.568;99.958;2022-11-15T02:45:20;101032.47;;;34.54;63.14
74230;BME280;62589;12.568;99.958;2022-11-15T02:47:51;101029.69;;;34.54;62.29
74230;BME280;62589;12.568;99.958;2022-11-15T02:50:21;101023.69;;;34.52;61.90
74230;BME280;62589;12.568;99.958;2022-11-15T02:52:50;101020.53;;;34.50;62.12
74230;BME280;62589;12.568;99.958;2022-11-15T02:55:33;101028.06;;;34.53;61.75
74230;BME280;62589;12.568;99.958;2022-11-15T02:58:25;101022.09;;;34.54;61.58
74230;BME280;62589;12.568;99.958;2022-11-15T03:01:18;101020.50;;;34.46;61.84
74230;BME280;62589;12.568;99.958;2022-11-15T03:06:53;101022.88;;;34.44;61.50
74230;BME280;62589;12.568;99.958;2022-11-15T03:09:45;101024.47;;;34.41;61.09
74230;BME280;62589;12.568;99.958;2022-11-15T03:12:34;101014.09;;;34.35;61.41
74230;BME280;62589;12.568;99.958;2022-11-15T03:15:10;101011.69;;;34.33;61.30
74230;BME280;62589;12.568;99.958;2022-11-15T03:17:51;100994.56;;;34.31;61.39
74230;BME280;62589;12.568;99.958;2022-11-15T03:20:20;100992.97;;;34.30;60.89
74230;BME280;62589;12.568;99.958;2022-11-15T03:22:48;100998.16;;;34.28;61.59
74230;BME280;62589;12.568;99.958;2022-11-15T03:25:22;100989.38;;;34.30;61.95
74230;BME280;62589;12.568;99.958;2022-11-15T03:27:53;100973.44;;;34.30;61.99
74230;BME280;62589;12.568;99.958;2022-11-15T03:30:21;100982.63;;;34.34;62.23
74230;BME280;62589;12.568;99.958;2022-11-15T03:32:54;100984.22;;;34.35;62.13
74230;BME280;62589;12.568;99.958;2022-11-15T03:35:22;100990.22;;;34.52;61.72
74230;BME280;62589;12.568;99.958;2022-11-15T03:38:21;100973.50;;;34.44;62.23
74230;BME280;62589;12.568;99.958;2022-11-15T03:40:59;100982.28;;;34.46;61.54
74230;BME280;62589;12.568;99.958;2022-11-15T03:43:46;100970.72;;;34.52;61.19
74230;BME280;62589;12.568;99.958;2022-11-15T03:49:19;100969.53;;;34.53;61.53
74230;BME280;62589;12.568;99.958;2022-11-15T03:51:49;100955.19;;;34.58;60.97
74230;BME280;62589;12.568;99.958;2022-11-15T03:54:16;100959.19;;;34.60;60.87
74230;BME280;62589;12.568;99.958;2022-11-15T03:56:42;100948.44;;;34.66;60.73
74230;BME280;62589;12.568;99.958;2022-11-15T03:59:09;100946.44;;;34.73;60.32
74230;BME280;62589;12.568;99.958;2022-11-15T04:01:36;100936.53;;;34.83;60.69
74230;BME280;62589;12.568;99.958;2022-11-15T04:04:02;100934.13;;;34.96;60.78
74230;BME280;62589;12.568;99.958;2022-11-15T04:06:29;100926.16;;;35.05;60.89
74230;BME280;62589;12.568;99.958;2022-11-15T04:08:56;100924.53;;;35.14;59.99
74230;BME280;62589;12.568;99.958;2022-11-15T04:11:22;100918.56;;;35.27;59.54
74230;BME280;62589;12.568;99.958;2022-11-15T04:13:49;100911.38;;;35.36;59.67
74230;BME280;62589;12.568;99.958;2022-11-15T04:16:16;100913.75;;;35.48;59.60
74230;BME280;62589;12.568;99.958;2022-11-15T04:18:42;100907.31;;;35.62;58.72
74230;BME280;62589;12.568;99.958;2022-11-15T04:21:09;100906.50;;;35.72;58.20
74230;BME280;62589;12.568;99.958;2022-11-15T04:23:48;100895.28;;;35.87;57.57
74230;BME280;62589;12.568;99.958;2022-11-15T04:26:26;100901.59;;;35.98;57.33
74230;BME280;62589;12.568;99.958;2022-11-15T04:28:53;100890.38;;;36.08;56.87
74230;BME280;62589;12.568;99.958;2022-11-15T04:31:31;100893.13;;;36.15;56.13
74230;BME280;62589;12.568;99.958;2022-11-15T04:33:58;100889.47;;;36.22;56.04
74230;BME280;62589;12.568;99.958;2022-11-15T04:36:25;100882.28;;;36.28;55.69
74230;BME280;62589;12.568;99.958;2022-11-15T04:39:04;100876.25;;;36.37;55.43
74230;BME280;62589;12.568;99.958;2022-11-15T04:41:30;100871.81;;;36.39;54.65
74230;BME280;62589;12.568;99.958;2022-11-15T04:43:57;100859.81;;;36.42;54.15
74230;BME280;62589;12.568;99.958;2022-11-15T04:46:24;100869.34;;;36.48;54.09
74230;BME280;62589;12.568;99.958;2022-11-15T04:48:52;100859.72;;;36.53;54.38
74230;BME280;62589;12.568;99.958;2022-11-15T04:51:19;100857.28;;;36.59;54.19
74230;BME280;62589;12.568;99.958;2022-11-15T04:53:46;100854.13;;;36.57;53.34
74230;BME280;62589;12.568;99.958;2022-11-15T04:56:14;100859.31;;;36.55;53.07
74230;BME280;62589;12.568;99.958;2022-11-15T04:58:41;100846.94;;;36.56;53.20
74230;BME280;62589;12.568;99.958;2022-11-15T05:01:13;100841.38;;;36.52;52.95
74230;BME280;62589;12.568;99.958;2022-11-15T05:03:41;100841.34;;;36.56;53.40
74230;BME280;62589;12.568;99.958;2022-11-15T05:06:20;100840.50;;;36.59;53.65
74230;BME280;62589;12.568;99.958;2022-11-15T05:08:47;100834.88;;;36.62;53.42
74230;BME280;62589;12.568;99.958;2022-11-15T05:11:13;100832.81;;;36.70;53.27
74230;BME280;62589;12.568;99.958;2022-11-15T05:13:40;100825.22;;;36.74;53.64
74230;BME280;62589;12.568;99.958;2022-11-15T05:16:07;100817.13;;;36.83;53.92
74230;BME280;62589;12.568;99.958;2022-11-15T05:18:33;100820.69;;;36.87;53.83
74230;BME280;62589;12.568;99.958;2022-11-15T05:21:12;100815.00;;;36.94;53.04
74230;BME280;62589;12.568;99.958;2022-11-15T05:23:40;100815.34;;;37.00;52.85
74230;BME280;62589;12.568;99.958;2022-11-15T05:26:08;100806.91;;;37.03;52.35
74230;BME280;62589;12.568;99.958;2022-11-15T05:28:35;100807.28;;;37.05;53.31
74230;BME280;62589;12.568;99.958;2022-11-15T05:31:04;100803.28;;;37.06;53.10
74230;BME280;62589;12.568;99.958;2022-11-15T05:33:32;100804.88;;;37.07;53.21
74230;BME280;62589;12.568;99.958;2022-11-15T05:36:17;100801.63;;;37.12;52.64
74230;BME280;62589;12.568;99.958;2022-11-15T05:38:46;100798.81;;;37.12;52.12
74230;BME280;62589;12.568;99.958;2022-11-15T05:41:13;100795.59;;;37.14;52.61
74230;BME280;62589;12.568;99.958;2022-11-15T05:43:42;100797.19;;;37.15;52.91
74230;BME280;62589;12.568;99.958;2022-11-15T05:46:10;100789.22;;;37.13;53.34
74230;BME280;62589;12.568;99.958;2022-11-15T05:48:39;100783.97;;;37.15;52.94
74230;BME280;62589;12.568;99.958;2022-11-15T05:51:07;100786.81;;;37.12;52.20
74230;BME280;62589;12.568;99.958;2022-11-15T05:53:35;100772.44;;;37.10;52.08
74230;BME280;62589;12.568;99.958;2022-11-15T05:56:04;100773.63;;;37.12;52.23
74230;BME280;62589;12.568;99.958;2022-11-15T05:58:32;100770.41;;;37.14;52.68
74230;BME280;62589;12.568;99.958;2022-11-15T06:01:00;100768.81;;;37.13;53.34
74230;BME280;62589;12.568;99.958;2022-11-15T06:03:27;100768.03;;;37.12;53.45
74230;BME280;62589;12.568;99.958;2022-11-15T06:05:54;100759.25;;;37.10;53.68
74230;BME280;62589;12.568;99.958;2022-11-15T06:08:21;100760.88;;;37.08;53.60
74230;BME280;62589;12.568;99.958;2022-11-15T06:10:47;100756.91;;;37.05;53.67
74230;BME280;62589;12.568;99.958;2022-11-15T06:13:14;100748.91;;;37.04;54.11
74230;BME280;62589;12.568;99.958;2022-11-15T06:15:41;100749.72;;;37.04;54.04
74230;BME280;62589;12.568;99.958;2022-11-15T06:18:07;100745.31;;;37.03;54.02
74230;BME280;62589;12.568;99.958;2022-11-15T06:20:34;100734.50;;;37.05;53.91
74230;BME280;62589;12.568;99.958;2022-11-15T06:23:03;100734.50;;;37.05;53.52
74230;BME280;62589;12.568;99.958;2022-11-15T06:25:30;100727.69;;;37.06;53.36
74230;BME280;62589;12.568;99.958;2022-11-15T06:27:58;100730.50;;;37.06;53.45
74230;BME280;62589;12.568;99.958;2022-11-15T06:30:26;100720.47;;;37.09;53.89
74230;BME280;62589;12.568;99.958;2022-11-15T06:33:00;100721.28;;;37.09;53.55
74230;BME280;62589;12.568;99.958;2022-11-15T06:35:28;100719.63;;;37.12;53.61
74230;BME280;62589;12.568;99.958;2022-11-15T06:37:55;100716.06;;;37.11;53.24
74230;BME280;62589;12.568;99.958;2022-11-15T06:40:22;100708.00;;;37.17;54.19
74230;BME280;62589;12.568;99.958;2022-11-15T06:42:49;100699.19;;;37.19;53.85
74230;BME280;62589;12.568;99.958;2022-11-15T06:45:16;100714.34;;;37.21;53.61
74230;BME280;62589;12.568;99.958;2022-11-15T06:47:46;100702.34;;;37.21;52.80
74230;BME280;62589;12.568;99.958;2022-11-15T06:50:13;100700.66;;;37.27;52.68
74230;BME280;62589;12.568;99.958;2022-11-15T06:52:40;100700.66;;;37.27;52.74
74230;BME280;62589;12.568;99.958;2022-11-15T06:55:07;100696.66;;;37.28;53.15
74230;BME280;62589;12.568;99.958;2022-11-15T06:57:34;100692.22;;;37.30;53.52
74230;BME280;62589;12.568;99.958;2022-11-15T07:00:05;100684.25;;;37.29;53.16
74230;BME280;62589;12.568;99.958;2022-11-15T07:02:32;100684.25;;;37.29;53.77
74230;BME280;62589;12.568;99.958;2022-11-15T07:04:58;100687.78;;;37.33;53.55
74230;BME280;62589;12.568;99.958;2022-11-15T07:07:25;100678.19;;;37.34;53.33
74230;BME280;62589;12.568;99.958;2022-11-15T07:09:52;100678.19;;;37.34;52.91
74230;BME280;62589;12.568;99.958;2022-11-15T07:12:18;100672.16;;;37.35;52.62
74230;BME280;62589;12.568;99.958;2022-11-15T07:14:45;100671.75;;;37.37;52.90
74230;BME280;62589;12.568;99.958;2022-11-15T07:17:12;100675.34;;;37.37;53.14
74230;BME280;62589;12.568;99.958;2022-11-15T07:19:38;100678.94;;;37.38;52.26
74230;BME280;62589;12.568;99.958;2022-11-15T07:22:05;100666.94;;;37.37;52.53
74230;BME280;62589;12.568;99.958;2022-11-15T07:24:32;100664.94;;;37.38;52.05
74230;BME280;62589;12.568;99.958;2022-11-15T07:26:58;100665.78;;;37.35;51.43
74230;BME280;62589;12.568;99.958;2022-11-15T07:29:25;100666.97;;;37.34;51.79
74230;BME280;62589;12.568;99.958;2022-11-15T07:31:52;100660.97;;;37.35;51.77
74230;BME280;62589;12.568;99.958;2022-11-15T07:34:19;100657.78;;;37.33;51.20
74230;BME280;62589;12.568;99.958;2022-11-15T07:36:45;100658.59;;;37.34;51.72
74230;BME280;62589;12.568;99.958;2022-11-15T07:39:12;100654.56;;;37.35;51.62
74230;BME280;62589;12.568;99.958;2022-11-15T07:41:40;100652.56;;;37.35;51.77
74230;BME280;62589;12.568;99.958;2022-11-15T07:44:06;100659.00;;;37.32;51.46
74230;BME280;62589;12.568;99.958;2022-11-15T07:46:33;100652.66;;;37.28;51.25
74230;BME280;62589;12.568;99.958;2022-11-15T07:49:00;100651.13;;;37.24;51.13
74230;BME280;62589;12.568;99.958;2022-11-15T07:51:27;100654.34;;;37.22;50.80
74230;BME280;62589;12.568;99.958;2022-11-15T07:53:53;100652.75;;;37.21;50.43
74230;BME280;62589;12.568;99.958;2022-11-15T07:56:20;100656.00;;;37.20;50.07
74230;BME280;62589;12.568;99.958;2022-11-15T07:58:47;100651.19;;;37.20;50.01
74230;BME280;62589;12.568;99.958;2022-11-15T08:01:13;100655.19;;;37.19;50.78
74230;BME280;62589;12.568;99.958;2022-11-15T08:03:40;100651.59;;;37.19;50.27
74230;BME280;62589;12.568;99.958;2022-11-15T08:06:07;100652.78;;;37.17;50.05
74230;BME280;62589;12.568;99.958;2022-11-15T08:08:34;100644.00;;;37.19;50.74
74230;BME280;62589;12.568;99.958;2022-11-15T08:11:01;100634.41;;;37.16;51.03
74230;BME280;62589;12.568;99.958;2022-11-15T08:13:27;100636.47;;;37.12;50.82
74230;BME280;62589;12.568;99.958;2022-11-15T08:15:58;100636.88;;;37.11;51.11
74230;BME280;62589;12.568;99.958;2022-11-15T08:18:25;100632.06;;;37.11;50.99
74230;BME280;62589;12.568;99.958;2022-11-15T08:20:52;100630.13;;;37.08;50.95
74230;BME280;62589;12.568;99.958;2022-11-15T08:23:18;100625.34;;;37.05;50.80
74230;BME280;62589;12.568;99.958;2022-11-15T08:25:45;100626.56;;;37.04;51.08
74230;BME280;62589;12.568;99.958;2022-11-15T08:28:12;100620.22;;;37.00;50.98
74230;BME280;62589;12.568;99.958;2022-11-15T08:30:41;100629.47;;;36.97;51.33
74230;BME280;62589;12.568;99.958;2022-11-15T08:33:11;100624.72;;;36.94;51.56
74230;BME280;62589;12.568;99.958;2022-11-15T08:35:40;100625.94;;;36.93;51.63
74230;BME280;62589;12.568;99.958;2022-11-15T08:38:07;100617.16;;;36.91;51.64
74230;BME280;62589;12.568;99.958;2022-11-15T08:40:33;100610.88;;;36.83;51.72
74230;BME280;62589;12.568;99.958;2022-11-15T08:43:00;100623.25;;;36.82;51.66
74230;BME280;62589;12.568;99.958;2022-11-15T08:45:29;100622.97;;;36.77;51.68
74230;BME280;62589;12.568;99.958;2022-11-15T08:47:56;100625.00;;;36.73;52.44
74230;BME280;62589;12.568;99.958;2022-11-15T08:50:23;100623.00;;;36.70;52.35
74230;BME280;62589;12.568;99.958;2022-11-15T08:52:49;100634.19;;;36.70;52.40
74230;BME280;62589;12.568;99.958;2022-11-15T08:55:16;100623.00;;;36.70;52.29
74230;BME280;62589;12.568;99.958;2022-11-15T08:57:43;100625.84;;;36.66;51.95
74230;BME280;62589;12.568;99.958;2022-11-15T09:00:10;100627.47;;;36.64;51.70
74230;BME280;62589;12.568;99.958;2022-11-15T09:02:39;100636.69;;;36.61;51.47
74230;BME280;62589;12.568;99.958;2022-11-15T09:05:06;100634.31;;;36.59;51.60
74230;BME280;62589;12.568;99.958;2022-11-15T09:07:33;100632.78;;;36.55;52.05
74230;BME280;62589;12.568;99.958;2022-11-15T09:10:00;100632.78;;;36.55;52.06
74230;BME280;62589;12.568;99.958;2022-11-15T09:12:27;100634.41;;;36.52;52.35
74230;BME280;62589;12.568;99.958;2022-11-15T09:14:53;100623.28;;;36.48;52.35
74230;BME280;62589;12.568;99.958;2022-11-15T09:17:20;100624.09;;;36.45;52.20
74230;BME280;62589;12.568;99.958;2022-11-15T09:19:46;100619.72;;;36.44;52.24
74230;BME280;62589;12.568;99.958;2022-11-15T09:22:13;100631.31;;;36.43;52.30
74230;BME280;62589;12.568;99.958;2022-11-15T09:24:39;100628.50;;;36.43;52.55
74230;BME280;62589;12.568;99.958;2022-11-15T09:27:05;100644.09;;;36.44;53.02
74230;BME280;62589;12.568;99.958;2022-11-15T09:29:32;100650.09;;;36.42;53.45
74230;BME280;62589;12.568;99.958;2022-11-15T09:31:58;100656.88;;;36.41;53.33
74230;BME280;62589;12.568;99.958;2022-11-15T09:34:24;100660.91;;;36.40;53.15
74230;BME280;62589;12.568;99.958;2022-11-15T09:36:51;100664.09;;;36.39;53.20
74230;BME280;62589;12.568;99.958;2022-11-15T09:39:18;100654.91;;;36.38;53.25
74230;BME280;62589;12.568;99.958;2022-11-15T09:45:06;100653.38;;;36.37;53.37
74230;BME280;62589;12.568;99.958;2022-11-15T09:50:38;100668.16;;;36.34;52.74
74230;BME280;62589;12.568;99.958;2022-11-15T09:53:13;100669.00;;;36.31;52.65
74230;BME280;62589;12.568;99.958;2022-11-15T09:56:01;100674.56;;;36.35;52.91
74230;BME280;62589;12.568;99.958;2022-11-15T09:58:38;100679.00;;;36.29;53.04
74230;BME280;62589;12.568;99.958;2022-11-15T10:01:16;100675.44;;;36.25;52.91
74230;BME280;62589;12.568;99.958;2022-11-15T10:03:44;100675.03;;;36.23;52.85
74230;BME280;62589;12.568;99.958;2022-11-15T10:06:23;100688.22;;;36.22;52.86
74230;BME280;62589;12.568;99.958;2022-11-15T10:09:00;100687.09;;;36.16;52.92
74230;BME280;62589;12.568;99.958;2022-11-15T10:11:30;100689.13;;;36.12;53.00
74230;BME280;62589;12.568;99.958;2022-11-15T10:14:05;100678.38;;;36.07;52.79
74230;BME280;62589;12.568;99.958;2022-11-15T10:19:54;100684.00;;;36.03;52.77
74230;BME280;62589;12.568;99.958;2022-11-15T10:22:27;100683.63;;;35.98;53.00
74230;BME280;62589;12.568;99.958;2022-11-15T10:25:16;100686.03;;;35.99;52.76
74230;BME280;62589;12.568;99.958;2022-11-15T10:27:45;100690.09;;;35.91;53.23
74230;BME280;62589;12.568;99.958;2022-11-15T10:30:17;100694.13;;;35.87;53.28
74230;BME280;62589;12.568;99.958;2022-11-15T10:32:46;100695.72;;;35.84;53.29
74230;BME280;62589;12.568;99.958;2022-11-15T10:35:25;100695.72;;;35.84;54.12
74230;BME280;62589;12.568;99.958;2022-11-15T10:38:08;100699.34;;;35.81;54.22
74230;BME280;62589;12.568;99.958;2022-11-15T10:40:35;100696.16;;;35.79;54.58
74230;BME280;62589;12.568;99.958;2022-11-15T10:43:16;100702.16;;;35.77;55.51
74230;BME280;62589;12.568;99.958;2022-11-15T10:45:44;100698.59;;;35.73;55.66
74230;BME280;62589;12.568;99.958;2022-11-15T10:48:29;100696.59;;;35.74;56.03
74230;BME280;62589;12.568;99.958;2022-11-15T10:50:56;100701.81;;;35.68;56.56
74230;BME280;62589;12.568;99.958;2022-11-15T10:53:33;100709.00;;;35.66;56.74
74230;BME280;62589;12.568;99.958;2022-11-15T10:56:06;100714.19;;;35.64;56.79
74230;BME280;62589;12.568;99.958;2022-11-15T10:58:49;100715.81;;;35.61;56.79
74230;BME280;62589;12.568;99.958;2022-11-15T11:01:19;100732.59;;;35.58;56.88
74230;BME280;62589;12.568;99.958;2022-11-15T11:04:00;100737.78;;;35.56;57.09
74230;BME280;62589;12.568;99.958;2022-11-15T11:06:30;100739.41;;;35.53;57.71
74230;BME280;62589;12.568;99.958;2022-11-15T11:09:03;100743.81;;;35.51;57.68
74230;BME280;62589;12.568;99.958;2022-11-15T11:11:48;100742.63;;;35.48;57.52
74230;BME280;62589;12.568;99.958;2022-11-15T11:14:33;100734.66;;;35.46;57.87
74230;BME280;62589;12.568;99.958;2022-11-15T11:34:55;100751.09;;;35.23;57.22
74230;BME280;62589;12.568;99.958;2022-11-15T11:37:43;100752.31;;;35.15;57.13
74230;BME280;62589;12.568;99.958;2022-11-15T11:40:28;100765.91;;;35.09;57.02
74230;BME280;62589;12.568;99.958;2022-11-15T11:46:28;100765.91;;;35.02;57.40
74230;BME280;62589;12.568;99.958;2022-11-15T11:49:12;100769.50;;;34.99;57.62
74230;BME280;62589;12.568;99.958;2022-11-15T11:51:45;100761.94;;;34.96;58.09
74230;BME280;62589;12.568;99.958;2022-11-15T11:54:37;100770.72;;;34.98;58.53
74230;BME280;62589;12.568;99.958;2022-11-15T11:57:16;100766.38;;;34.90;58.95
74230;BME280;62589;12.568;99.958;2022-11-15T11:59:58;100771.94;;;34.90;58.80
74230;BME280;62589;12.568;99.958;2022-11-15T12:02:40;100778.72;;;34.89;58.64
74230;BME280;62589;12.568;99.958;2022-11-15T12:08:29;100779.94;;;34.85;58.23
74230;BME280;62589;12.568;99.958;2022-11-15T12:11:20;100791.09;;;34.85;58.32
74230;BME280;62589;12.568;99.958;2022-11-15T12:13:56;100792.69;;;34.78;58.32
74230;BME280;62589;12.568;99.958;2022-11-15T12:16:32;100800.63;;;34.76;58.57
74230;BME280;62589;12.568;99.958;2022-11-15T12:19:03;100803.00;;;34.74;59.59
74230;BME280;62589;12.568;99.958;2022-11-15T12:21:47;100807.38;;;34.72;59.65
74230;BME280;62589;12.568;99.958;2022-11-15T12:24:24;100815.38;;;34.70;59.90
74230;BME280;62589;12.568;99.958;2022-11-15T12:27:08;100807.81;;;34.67;60.56
74230;BME280;62589;12.568;99.958;2022-11-15T12:29:45;100811.41;;;34.64;60.13
74230;BME280;62589;12.568;99.958;2022-11-15T12:32:27;100830.94;;;34.64;60.49
74230;BME280;62589;12.568;99.958;2022-11-15T12:34:56;100824.16;;;34.61;60.22
74230;BME280;62589;12.568;99.958;2022-11-15T12:37:51;100826.53;;;34.63;60.37
74230;BME280;62589;12.568;99.958;2022-11-15T12:40:28;100832.13;;;34.56;60.30
74230;BME280;62589;12.568;99.958;2022-11-15T12:45:44;100832.91;;;34.53;60.27
74230;BME280;62589;12.568;99.958;2022-11-15T12:51:19;100838.50;;;34.45;60.96
74230;BME280;62589;12.568;99.958;2022-11-15T12:53:46;100840.09;;;34.43;60.97
74230;BME280;62589;12.568;99.958;2022-11-15T12:56:21;100843.66;;;34.43;60.50
74230;BME280;62589;12.568;99.958;2022-11-15T12:59:00;100843.28;;;34.41;61.21
74230;BME280;62589;12.568;99.958;2022-11-15T13:04:24;100848.84;;;34.38;61.14
74230;BME280;62589;12.568;99.958;2022-11-15T13:07:03;100840.47;;;34.34;61.91
74230;BME280;62589;12.568;99.958;2022-11-15T13:09:50;100837.28;;;34.32;62.00
74230;BME280;62589;12.568;99.958;2022-11-15T13:18:29;100852.78;;;34.26;61.32
74230;BME280;62589;12.568;99.958;2022-11-15T13:20:57;100857.97;;;34.24;61.71
74230;BME280;62589;12.568;99.958;2022-11-15T13:23:24;100865.50;;;34.20;61.82
74230;BME280;62589;12.568;99.958;2022-11-15T13:26:10;100867.09;;;34.18;62.74
74230;BME280;62589;12.568;99.958;2022-11-15T13:28:46;100869.06;;;34.13;61.89
74230;BME280;62589;12.568;99.958;2022-11-15T13:34:31;100879.44;;;34.17;60.72
74230;BME280;62589;12.568;99.958;2022-11-15T13:36:59;100875.84;;;34.12;60.66
74230;BME280;62589;12.568;99.958;2022-11-15T13:39:32;100878.59;;;34.09;61.26
74230;BME280;62589;12.568;99.958;2022-11-15T13:42:00;100884.59;;;34.11;61.00
74230;BME280;62589;12.568;99.958;2022-11-15T13:44:30;100892.97;;;34.07;60.52
74230;BME280;62589;12.568;99.958;2022-11-15T13:47:19;100899.72;;;34.10;60.84
74230;BME280;62589;12.568;99.958;2022-11-15T13:49:46;100902.50;;;34.06;60.38
74230;BME280;62589;12.568;99.958;2022-11-15T13:52:15;100910.44;;;34.01;60.79
74230;BME280;62589;12.568;99.958;2022-11-15T13:55:01;100910.84;;;34.03;61.38
74230;BME280;62589;12.568;99.958;2022-11-15T13:57:37;100900.47;;;33.96;61.15
74230;BME280;62589;12.568;99.958;2022-11-15T14:00:22;100908.03;;;33.96;60.78
74230;BME280;62589;12.568;99.958;2022-11-15T14:02:50;100896.88;;;33.96;60.04
74230;BME280;62589;12.568;99.958;2022-11-15T14:05:20;100899.28;;;33.94;59.89
74230;BME280;62589;12.568;99.958;2022-11-15T14:08:12;100883.34;;;33.94;60.59
74230;BME280;62589;12.568;99.958;2022-11-15T14:10:44;100884.13;;;33.91;62.18
74230;BME280;62589;12.568;99.958;2022-11-15T14:13:27;100888.09;;;33.90;60.87
74230;BME280;62589;12.568;99.958;2022-11-15T14:15:54;100886.53;;;33.86;60.25
74230;BME280;62589;12.568;99.958;2022-11-15T14:18:40;100890.50;;;33.85;59.73